createdAt,value
2018-08-31T00:02:28.067Z,2.63
2018-08-31T00:05:00.340Z,2.10
2018-08-31T00:07:35.347Z,2.30
2018-08-31T00:10:03.831Z,2.07
2018-08-31T00:12:33.160Z,2.17
2018-08-31T00:15:01.483Z,2.47
2018-08-31T00:17:29.834Z,3.00
2018-08-31T00:19:58.181Z,2.13
2018-08-31T00:22:26.547Z,2.50
2018-08-31T00:24:54.878Z,2.43
2018-08-31T00:33:32.822Z,3.17
2018-08-31T00:36:02.864Z,2.97
2018-08-31T00:38:31.206Z,2.93
2018-08-31T00:40:59.654Z,2.77
2018-08-31T00:43:28.012Z,2.40
2018-08-31T00:45:56.331Z,2.37
2018-08-31T00:48:24.759Z,2.77
2018-08-31T00:50:53.091Z,2.57
2018-08-31T00:53:21.410Z,2.77
2018-08-31T00:55:49.732Z,2.80
2018-08-31T00:58:18.082Z,2.63
2018-08-31T01:00:46.420Z,3.00
2018-08-31T01:03:15.521Z,2.40
2018-08-31T01:05:44.624Z,2.43
2018-08-31T01:08:13.730Z,2.70
2018-08-31T01:10:42.076Z,2.73
2018-08-31T01:13:10.404Z,2.80
2018-08-31T01:15:38.803Z,2.90
2018-08-31T01:18:07.142Z,2.40
2018-08-31T01:20:35.531Z,2.30
2018-08-31T01:23:03.848Z,2.00
2018-08-31T01:25:32.282Z,2.90
2018-08-31T01:28:00.609Z,2.63
2018-08-31T01:30:28.931Z,2.27
2018-08-31T01:32:58.098Z,2.50
2018-08-31T01:35:26.434Z,2.13
2018-08-31T01:37:54.798Z,2.33
2018-08-31T01:40:23.126Z,2.03
2018-08-31T01:42:51.552Z,2.23
2018-08-31T01:45:19.890Z,2.10
2018-08-31T01:47:48.296Z,2.17
2018-08-31T01:50:16.607Z,2.20
2018-08-31T01:52:45.028Z,2.27
2018-08-31T01:55:13.292Z,2.33
2018-08-31T01:57:41.630Z,2.30
2018-08-31T02:00:09.970Z,2.37
2018-08-31T02:02:38.390Z,2.20
2018-08-31T02:05:06.801Z,2.13
2018-08-31T02:07:35.153Z,2.07
2018-08-31T02:10:03.604Z,2.20
2018-08-31T02:12:32.699Z,2.27
2018-08-31T02:15:01.052Z,1.80
2018-08-31T02:17:29.454Z,2.20
2018-08-31T02:19:57.838Z,2.17
2018-08-31T02:22:26.155Z,2.50
2018-08-31T02:24:54.588Z,2.37
2018-08-31T02:27:23.026Z,2.13
2018-08-31T02:29:51.442Z,1.90
2018-08-31T02:32:19.853Z,2.40
2018-08-31T02:34:48.934Z,2.37
2018-08-31T02:37:18.096Z,2.00
2018-08-31T02:39:46.516Z,2.10
2018-08-31T02:42:15.635Z,2.40
2018-08-31T02:44:43.948Z,2.60
2018-08-31T02:47:12.335Z,2.87
2018-08-31T02:49:40.665Z,2.50
2018-08-31T02:52:09.026Z,2.30
2018-08-31T02:54:38.166Z,2.30
2018-08-31T02:57:06.535Z,2.30
2018-08-31T02:59:34.866Z,2.93
2018-08-31T03:02:03.217Z,2.70
2018-08-31T03:04:31.563Z,2.00
2018-08-31T03:06:59.923Z,2.10
2018-08-31T03:09:29.032Z,2.43
2018-08-31T03:11:57.427Z,2.37
2018-08-31T03:14:25.841Z,2.40
2018-08-31T03:16:54.173Z,2.37
2018-08-31T03:19:22.509Z,2.80
2018-08-31T03:21:51.044Z,2.47
2018-08-31T03:24:19.391Z,2.37
2018-08-31T03:26:48.485Z,2.70
2018-08-31T03:29:16.814Z,2.30
2018-08-31T03:31:45.150Z,2.67
2018-08-31T03:34:14.282Z,2.67
2018-08-31T03:36:42.651Z,2.43
2018-08-31T03:39:11.024Z,2.50
2018-08-31T03:41:39.412Z,2.27
2018-08-31T03:44:07.934Z,2.37
2018-08-31T03:46:36.268Z,2.70
2018-08-31T03:49:04.590Z,2.53
2018-08-31T03:51:32.940Z,2.77
2018-08-31T03:54:01.295Z,2.40
2018-08-31T03:56:30.496Z,2.90
2018-08-31T03:58:58.807Z,2.93
2018-08-31T04:01:27.170Z,2.77
2018-08-31T04:03:55.763Z,2.33
2018-08-31T04:06:24.107Z,2.43
2018-08-31T04:08:53.204Z,2.90
2018-08-31T04:11:22.287Z,2.63
2018-08-31T04:13:50.698Z,2.53
2018-08-31T04:16:19.049Z,2.60
2018-08-31T04:18:48.178Z,3.00
2018-08-31T04:21:16.518Z,2.43
2018-08-31T04:23:45.622Z,2.77
2018-08-31T04:26:14.744Z,2.43
2018-08-31T04:28:43.086Z,2.80
2018-08-31T04:31:11.408Z,2.60
2018-08-31T04:33:39.783Z,2.70
2018-08-31T04:36:08.120Z,3.03
2018-08-31T04:38:37.344Z,2.50
2018-08-31T04:41:06.434Z,2.27
2018-08-31T04:43:34.767Z,2.63
2018-08-31T04:46:03.213Z,3.27
2018-08-31T04:48:31.666Z,2.53
2018-08-31T04:51:00.755Z,2.70
2018-08-31T04:53:29.163Z,2.80
2018-08-31T04:55:57.546Z,3.00
2018-08-31T04:58:25.869Z,3.20
2018-08-31T05:00:54.239Z,5.00
2018-08-31T05:03:22.558Z,3.53
2018-08-31T05:05:51.725Z,2.97
2018-08-31T05:08:20.090Z,2.70
2018-08-31T05:10:48.378Z,3.23
2018-08-31T05:13:16.708Z,3.23
2018-08-31T05:15:45.043Z,3.00
2018-08-31T05:18:13.403Z,2.60
2018-08-31T05:20:41.721Z,2.60
2018-08-31T05:23:10.829Z,2.53
2018-08-31T05:25:39.929Z,2.90
2018-08-31T05:28:08.284Z,2.57
2018-08-31T05:30:36.625Z,3.00
2018-08-31T05:33:05.084Z,3.00
2018-08-31T05:35:33.410Z,2.67
2018-08-31T05:38:01.923Z,2.47
2018-08-31T05:40:30.333Z,2.97
2018-08-31T05:42:58.775Z,3.00
2018-08-31T05:45:27.107Z,2.57
2018-08-31T05:47:55.569Z,2.47
2018-08-31T05:50:23.932Z,2.50
2018-08-31T05:52:52.273Z,2.77
2018-08-31T05:55:20.628Z,2.50
2018-08-31T05:57:49.237Z,2.90
2018-08-31T06:00:17.605Z,3.37
2018-08-31T06:02:46.006Z,2.80
2018-08-31T06:05:14.447Z,3.33
2018-08-31T06:07:42.791Z,3.00
2018-08-31T06:10:11.132Z,3.23
2018-08-31T06:12:39.468Z,3.17
2018-08-31T06:15:07.798Z,2.87
2018-08-31T06:17:36.357Z,2.80
2018-08-31T06:20:04.686Z,2.90
2018-08-31T06:22:33.022Z,3.40
2018-08-31T06:25:01.356Z,3.60
2018-08-31T06:27:29.694Z,2.70
2018-08-31T06:29:58.971Z,3.30
2018-08-31T06:32:27.308Z,3.17
2018-08-31T06:34:55.648Z,2.80
2018-08-31T06:37:24.127Z,3.03
2018-08-31T06:39:52.537Z,3.93
2018-08-31T06:42:21.685Z,3.03
2018-08-31T06:44:50.115Z,3.23
2018-08-31T06:47:18.597Z,3.13
2018-08-31T06:49:47.682Z,3.10
2018-08-31T06:52:16.857Z,2.90
2018-08-31T06:54:45.200Z,3.30
2018-08-31T06:57:13.522Z,3.00
2018-08-31T06:59:41.868Z,2.87
2018-08-31T07:02:10.217Z,3.13
2018-08-31T07:04:38.634Z,3.37
2018-08-31T07:07:06.952Z,3.30
2018-08-31T07:09:36.715Z,2.80
2018-08-31T07:12:05.031Z,2.90
2018-08-31T07:14:33.371Z,2.70
2018-08-31T07:17:01.686Z,2.90
2018-08-31T07:19:30.103Z,2.90
2018-08-31T07:21:58.370Z,2.93
2018-08-31T07:24:27.057Z,3.40
2018-08-31T07:26:55.467Z,2.80
2018-08-31T07:29:23.717Z,2.60
2018-08-31T07:31:52.040Z,2.43
2018-08-31T07:34:20.479Z,2.93
2018-08-31T07:36:48.858Z,3.13
2018-08-31T07:39:17.241Z,2.20
2018-08-31T07:41:45.578Z,2.63
2018-08-31T07:44:13.929Z,2.90
2018-08-31T07:46:42.273Z,3.03
2018-08-31T07:49:10.651Z,2.40
2018-08-31T07:51:38.999Z,2.40
2018-08-31T07:54:07.323Z,2.73
2018-08-31T07:56:36.107Z,2.20
2018-08-31T07:59:04.447Z,2.90
2018-08-31T08:01:32.777Z,2.13
2018-08-31T08:04:01.136Z,2.33
2018-08-31T08:06:29.457Z,2.37
2018-08-31T08:08:57.891Z,2.70
2018-08-31T08:11:26.260Z,2.00
2018-08-31T08:13:55.537Z,2.60
2018-08-31T08:16:23.951Z,1.90
2018-08-31T08:18:52.285Z,2.80
2018-08-31T08:21:20.745Z,2.47
2018-08-31T08:23:49.067Z,2.30
2018-08-31T08:26:17.503Z,2.30
2018-08-31T08:28:45.861Z,2.13
2018-08-31T08:31:14.189Z,2.40
2018-08-31T08:33:42.517Z,2.10
2018-08-31T08:36:10.925Z,2.20
2018-08-31T08:38:39.239Z,2.10
2018-08-31T08:41:07.658Z,2.37
2018-08-31T08:43:35.992Z,2.13
2018-08-31T08:46:04.338Z,2.23
2018-08-31T08:48:32.809Z,2.10
2018-08-31T08:51:01.774Z,2.20
2018-08-31T08:53:30.116Z,1.70
2018-08-31T08:55:58.573Z,2.07
2018-08-31T08:58:26.914Z,2.00
2018-08-31T09:00:55.286Z,2.13
2018-08-31T09:03:23.640Z,1.73
2018-08-31T09:05:52.068Z,1.67
2018-08-31T09:08:20.406Z,2.53
2018-08-31T09:10:49.505Z,2.30
2018-08-31T09:13:18.749Z,2.30
2018-08-31T09:15:47.103Z,2.30
2018-08-31T09:18:15.497Z,1.87
2018-08-31T09:20:43.793Z,2.40
2018-08-31T09:23:12.133Z,2.00
2018-08-31T09:25:40.475Z,2.40
2018-08-31T09:28:08.825Z,2.10
2018-08-31T09:30:37.173Z,2.03
2018-08-31T09:33:05.671Z,2.10
2018-08-31T09:35:33.992Z,1.63
2018-08-31T09:38:02.311Z,1.93
2018-08-31T09:40:30.652Z,1.93
2018-08-31T09:42:58.979Z,2.30
2018-08-31T09:45:27.329Z,2.43
2018-08-31T09:47:55.667Z,2.40
2018-08-31T09:50:24.177Z,2.27
2018-08-31T09:52:52.574Z,2.07
2018-08-31T09:55:21.738Z,1.93
2018-08-31T09:57:50.061Z,2.20
2018-08-31T10:00:18.413Z,2.20
2018-08-31T10:02:46.739Z,1.70
2018-08-31T10:05:15.078Z,1.73
2018-08-31T10:07:44.188Z,1.70
2018-08-31T10:10:13.431Z,1.97
2018-08-31T10:12:41.759Z,1.85
2018-08-31T10:15:10.887Z,1.90
2018-08-31T10:17:39.249Z,1.80
2018-08-31T10:20:07.606Z,1.80
2018-08-31T10:22:35.932Z,1.52
2018-08-31T10:25:04.257Z,1.35
2018-08-31T10:27:32.803Z,1.23
2018-08-31T10:30:01.133Z,1.55
2018-08-31T10:32:29.451Z,1.42
2018-08-31T10:34:57.784Z,1.50
2018-08-31T10:37:26.875Z,1.58
2018-08-31T10:39:56.011Z,1.95
2018-08-31T10:42:24.372Z,1.60
2018-08-31T10:44:52.755Z,1.58
2018-08-31T10:47:21.087Z,1.70
2018-08-31T10:49:49.511Z,1.37
2018-08-31T10:52:17.959Z,1.67
2018-08-31T10:54:46.283Z,1.67
2018-08-31T10:57:14.750Z,1.25
2018-08-31T10:59:43.163Z,1.42
2018-08-31T11:02:11.547Z,1.35
2018-08-31T11:04:39.853Z,1.42
2018-08-31T11:07:08.309Z,1.45
2018-08-31T11:09:36.779Z,1.23
2018-08-31T11:12:05.139Z,1.48
2018-08-31T11:14:33.513Z,1.45
2018-08-31T11:17:02.069Z,1.50
2018-08-31T11:19:30.477Z,1.87
2018-08-31T11:21:58.829Z,1.55
2018-08-31T11:24:27.333Z,1.10
2018-08-31T11:26:55.723Z,1.92
2018-08-31T11:29:24.103Z,1.60
2018-08-31T11:31:52.450Z,1.73
2018-08-31T11:34:21.543Z,2.05
2018-08-31T11:36:49.945Z,1.80
2018-08-31T11:39:18.327Z,1.80
2018-08-31T11:41:47.491Z,1.60
2018-08-31T11:44:15.988Z,1.70
2018-08-31T11:46:44.428Z,1.85
2018-08-31T11:49:12.803Z,1.90
2018-08-31T11:51:41.172Z,2.10
2018-08-31T11:54:09.531Z,1.80
2018-08-31T11:56:37.911Z,2.83
2018-08-31T11:59:06.486Z,1.60
2018-08-31T12:01:34.866Z,1.80
2018-08-31T12:04:03.364Z,1.50
2018-08-31T12:06:31.712Z,1.50
2018-08-31T12:09:00.066Z,1.73
2018-08-31T12:11:28.411Z,1.73
2018-08-31T12:13:56.726Z,1.50
2018-08-31T12:16:25.175Z,1.45
2018-08-31T12:18:53.541Z,1.20
2018-08-31T12:21:21.859Z,1.37
2018-08-31T12:23:50.187Z,1.90
2018-08-31T12:26:18.556Z,1.75
2018-08-31T12:28:46.881Z,1.83
2018-08-31T12:31:15.227Z,1.60
2018-08-31T12:33:43.561Z,1.73
2018-08-31T12:36:11.910Z,1.30
2018-08-31T12:38:40.289Z,1.92
2018-08-31T12:41:08.823Z,1.42
2018-08-31T12:43:37.172Z,1.70
2018-08-31T12:46:05.493Z,2.05
2018-08-31T12:48:33.940Z,1.80
2018-08-31T12:51:02.293Z,1.55
2018-08-31T12:53:30.627Z,1.95
2018-08-31T12:55:59.717Z,1.60
2018-08-31T12:58:28.824Z,1.90
2018-08-31T13:00:57.151Z,1.67
2018-08-31T13:03:25.500Z,1.80
2018-08-31T13:05:53.980Z,1.73
2018-08-31T13:08:22.378Z,1.80
2018-08-31T13:10:50.720Z,1.98
2018-08-31T13:13:19.112Z,1.50
2018-08-31T13:15:47.494Z,2.12
2018-08-31T13:18:15.850Z,1.80
2018-08-31T13:20:44.948Z,1.50
2018-08-31T13:23:13.282Z,1.58
2018-08-31T13:25:41.620Z,1.75
2018-08-31T13:28:10.004Z,1.70
2018-08-31T13:30:38.378Z,1.80
2018-08-31T13:33:06.989Z,1.67
2018-08-31T13:35:35.308Z,1.60
2018-08-31T13:38:03.872Z,1.70
2018-08-31T13:40:32.204Z,1.75
2018-08-31T13:43:00.526Z,1.75
2018-08-31T13:45:28.962Z,1.52
2018-08-31T13:47:57.316Z,1.55
2018-08-31T13:50:26.628Z,1.48
2018-08-31T13:52:55.748Z,1.35
2018-08-31T13:55:24.117Z,1.50
2018-08-31T13:57:52.512Z,1.60
2018-08-31T14:00:20.836Z,1.70
2018-08-31T14:02:49.187Z,1.77
2018-08-31T14:05:17.528Z,1.73
2018-08-31T14:07:46.064Z,1.60
2018-08-31T14:10:14.496Z,1.80
2018-08-31T14:12:42.862Z,1.60
2018-08-31T14:15:11.178Z,1.75
2018-08-31T14:17:39.526Z,1.87
2018-08-31T14:20:07.877Z,1.42
2018-08-31T14:22:36.232Z,1.58
2018-08-31T14:25:04.621Z,1.92
2018-08-31T14:27:33.181Z,1.70
2018-08-31T14:30:01.513Z,2.28
2018-08-31T14:32:29.842Z,1.90
2018-08-31T14:34:58.189Z,1.70
2018-08-31T14:37:26.538Z,1.60
2018-08-31T14:39:54.926Z,1.80
2018-08-31T14:42:24.036Z,1.87
2018-08-31T14:44:52.392Z,2.10
2018-08-31T14:47:21.696Z,1.60
2018-08-31T14:49:51.179Z,1.50
2018-08-31T14:52:20.340Z,1.60
2018-08-31T14:54:48.844Z,2.58
2018-08-31T14:57:17.144Z,1.92
2018-08-31T14:59:45.579Z,1.75
2018-08-31T15:02:14.076Z,1.62
2018-08-31T15:04:42.402Z,1.90
2018-08-31T15:07:11.580Z,1.60
2018-08-31T15:09:39.908Z,1.83
2018-08-31T15:12:08.286Z,1.98
2018-08-31T15:14:36.770Z,1.67
2018-08-31T15:17:05.102Z,1.90
2018-08-31T15:19:33.452Z,1.70
2018-08-31T15:22:02.756Z,1.48
2018-08-31T15:24:31.110Z,2.25
2018-08-31T15:26:59.685Z,1.80
2018-08-31T15:29:28.783Z,1.75
2018-08-31T15:31:57.125Z,1.92
2018-08-31T15:34:25.492Z,2.00
2018-08-31T15:36:53.977Z,1.80
2018-08-31T15:39:23.096Z,1.70
2018-08-31T15:41:52.191Z,1.55
2018-08-31T15:44:20.593Z,1.95
2018-08-31T15:46:48.941Z,2.10
2018-08-31T15:49:17.294Z,1.67
2018-08-31T15:51:45.626Z,1.42
2018-08-31T15:54:14.061Z,1.80
2018-08-31T15:56:43.281Z,1.60
2018-08-31T15:59:12.384Z,1.75
2018-08-31T16:01:41.506Z,1.58
2018-08-31T16:04:09.837Z,1.70
2018-08-31T16:06:38.196Z,1.42
2018-08-31T16:09:06.579Z,1.30
2018-08-31T16:11:34.883Z,1.60
2018-08-31T16:14:03.183Z,1.60
2018-08-31T16:16:31.789Z,1.60
2018-08-31T16:19:00.223Z,1.80
2018-08-31T16:21:28.489Z,1.60
2018-08-31T16:23:57.261Z,1.70
2018-08-31T16:26:26.407Z,1.70
2018-08-31T16:28:55.877Z,1.60
2018-08-31T16:31:24.219Z,1.40
2018-08-31T16:33:52.598Z,2.08
2018-08-31T16:36:20.932Z,1.75
2018-08-31T16:38:50.112Z,1.40
2018-08-31T16:41:18.391Z,1.27
2018-08-31T16:43:46.787Z,1.15
2018-08-31T16:46:15.220Z,1.73
2018-08-31T16:48:43.625Z,1.62
2018-08-31T16:51:11.942Z,1.48
2018-08-31T16:53:40.384Z,1.55
2018-08-31T16:56:08.851Z,1.40
2018-08-31T16:58:37.189Z,1.77
2018-08-31T17:01:05.563Z,1.67
2018-08-31T17:03:34.662Z,2.17
2018-08-31T17:06:03.793Z,1.45
2018-08-31T17:08:32.115Z,2.05
2018-08-31T17:11:00.625Z,1.55
2018-08-31T17:13:29.698Z,1.40
2018-08-31T17:15:58.043Z,1.90
2018-08-31T17:18:26.401Z,1.77
2018-08-31T17:20:54.762Z,1.73
2018-08-31T17:23:23.106Z,1.52
2018-08-31T17:25:51.531Z,1.60
2018-08-31T17:31:16.855Z,1.87
2018-08-31T17:39:36.652Z,1.70
2018-08-31T17:42:05.883Z,2.00
2018-08-31T17:44:34.248Z,1.80
2018-08-31T17:47:03.655Z,1.80
2018-08-31T17:49:31.983Z,1.70
2018-08-31T17:52:00.413Z,1.97
2018-08-31T17:54:29.624Z,1.90
2018-08-31T17:56:58.002Z,1.50
2018-08-31T17:59:26.688Z,2.00
2018-08-31T18:01:55.040Z,2.00
2018-08-31T18:04:24.170Z,1.73
2018-08-31T18:06:52.522Z,1.70
2018-08-31T18:09:22.662Z,1.77
2018-08-31T18:11:50.937Z,2.90
2018-08-31T18:14:19.255Z,2.47
2018-08-31T18:16:47.638Z,2.30
2018-08-31T18:19:16.078Z,2.07
2018-08-31T18:21:44.397Z,2.17
2018-08-31T18:24:12.969Z,1.90
2018-08-31T18:26:41.648Z,2.10
2018-08-31T18:29:10.205Z,2.00
2018-08-31T18:31:38.544Z,1.90
2018-08-31T18:34:06.903Z,2.00
2018-08-31T18:36:35.292Z,2.10
2018-08-31T18:39:04.512Z,2.20
2018-08-31T18:41:33.569Z,2.07
2018-08-31T18:44:01.990Z,2.40
2018-08-31T18:46:31.261Z,2.40
2018-08-31T18:48:59.576Z,3.27
2018-08-31T18:51:28.076Z,2.53
2018-08-31T18:53:56.443Z,2.50
2018-08-31T18:56:25.759Z,2.63
2018-08-31T18:58:54.163Z,2.33
2018-08-31T19:01:22.503Z,2.90
2018-08-31T19:03:50.833Z,2.50
2018-08-31T19:06:19.275Z,2.40
2018-08-31T19:08:48.346Z,2.50
2018-08-31T19:11:17.464Z,2.77
2018-08-31T19:13:45.784Z,2.33
2018-08-31T19:16:14.326Z,2.60
2018-08-31T19:18:42.729Z,3.03
2018-08-31T19:21:11.174Z,2.70
2018-08-31T19:23:39.581Z,2.80
2018-08-31T19:26:07.909Z,2.57
2018-08-31T19:28:36.351Z,2.87
2018-08-31T19:31:04.666Z,2.53
2018-08-31T19:33:33.065Z,3.03
2018-08-31T19:36:02.200Z,2.90
2018-08-31T19:38:30.542Z,2.77
2018-08-31T19:40:59.761Z,2.90
2018-08-31T19:43:28.341Z,2.63
2018-08-31T19:45:56.780Z,2.43
2018-08-31T19:48:25.136Z,3.07
2018-08-31T19:50:53.522Z,3.07
2018-08-31T19:53:21.880Z,3.27
2018-08-31T19:55:50.252Z,3.47
2018-08-31T19:58:18.722Z,3.00
2018-08-31T20:00:47.089Z,2.93
2018-08-31T20:03:16.171Z,2.83
2018-08-31T20:05:45.319Z,9.57
2018-08-31T20:08:13.721Z,3.70
2018-08-31T20:10:42.089Z,2.80
2018-08-31T20:13:10.471Z,2.50
2018-08-31T20:15:39.428Z,2.50
2018-08-31T20:18:08.016Z,2.60
2018-08-31T20:20:36.421Z,2.60
2018-08-31T20:23:05.579Z,2.50
2018-08-31T20:25:34.718Z,2.40
2018-08-31T20:28:03.099Z,2.67
2018-08-31T20:30:31.516Z,2.10
2018-08-31T20:32:59.931Z,2.07
2018-08-31T20:35:28.316Z,2.23
2018-08-31T20:37:56.702Z,2.13
2018-08-31T20:40:25.027Z,1.90
2018-08-31T20:42:53.377Z,1.90
2018-08-31T20:45:21.726Z,1.80
2018-08-31T20:47:50.082Z,1.90
2018-08-31T20:50:18.518Z,2.23
2018-08-31T20:52:46.948Z,2.00
2018-08-31T20:55:17.042Z,2.00
2018-08-31T20:57:45.384Z,1.70
2018-08-31T21:00:13.853Z,2.40
2018-08-31T21:02:42.191Z,2.40
2018-08-31T21:05:11.295Z,2.13
2018-08-31T21:07:40.490Z,1.70
2018-08-31T21:10:08.843Z,2.07
2018-08-31T21:12:37.285Z,2.10
2018-08-31T21:15:05.624Z,1.83
2018-08-31T21:17:33.956Z,2.17
2018-08-31T21:20:02.301Z,1.90
2018-08-31T21:22:31.417Z,2.03
2018-08-31T21:24:59.758Z,2.00
2018-08-31T21:27:29.099Z,1.90
2018-08-31T21:29:57.421Z,1.87
2018-08-31T21:32:25.856Z,1.90
2018-08-31T21:34:54.182Z,2.00
2018-08-31T21:37:22.558Z,1.90
2018-08-31T21:39:50.930Z,1.73
2018-08-31T21:42:19.315Z,1.93
2018-08-31T21:44:47.656Z,2.00
2018-08-31T21:47:16.247Z,1.90
2018-08-31T21:49:44.561Z,3.10
2018-08-31T21:52:13.792Z,2.50
2018-08-31T21:54:42.143Z,1.83
2018-08-31T21:57:10.840Z,2.07
2018-08-31T21:59:40.020Z,1.63
2018-08-31T22:02:08.355Z,2.17
2018-08-31T22:04:36.710Z,2.13
2018-08-31T22:07:07.382Z,2.10
2018-08-31T22:09:35.751Z,2.27
2018-08-31T22:12:04.200Z,2.40
2018-08-31T22:14:33.306Z,2.10
2018-08-31T22:17:01.694Z,2.20
2018-08-31T22:19:30.044Z,1.90
2018-08-31T22:21:59.774Z,2.40
2018-08-31T22:24:28.117Z,2.17
2018-08-31T22:26:57.264Z,2.43
2018-08-31T22:29:25.594Z,2.03
2018-08-31T22:31:53.923Z,2.13
2018-08-31T22:34:26.173Z,1.90
2018-08-31T22:36:56.217Z,1.90
2018-08-31T22:39:24.708Z,2.33
2018-08-31T22:41:54.436Z,2.30
2018-08-31T22:44:23.200Z,1.87
2018-08-31T22:46:51.670Z,1.90
2018-08-31T22:49:20.198Z,2.50
2018-08-31T22:51:49.554Z,2.83
2018-08-31T22:54:18.396Z,2.47
2018-08-31T22:56:46.763Z,2.60
2018-08-31T22:59:15.090Z,2.33
2018-08-31T23:01:43.610Z,2.60
2018-08-31T23:04:12.396Z,2.50
2018-08-31T23:06:40.812Z,2.33
2018-08-31T23:09:09.176Z,2.57
2018-08-31T23:11:38.472Z,2.30
2018-08-31T23:14:06.786Z,2.00
2018-08-31T23:16:35.150Z,2.97
2018-08-31T23:19:03.616Z,2.33
2018-08-31T23:21:32.008Z,2.20
2018-08-31T23:24:00.500Z,2.30
2018-08-31T23:26:28.881Z,2.47
2018-08-31T23:28:57.264Z,2.37
2018-08-31T23:31:26.362Z,2.53
2018-08-31T23:33:55.474Z,2.47
2018-08-31T23:36:23.838Z,2.23
2018-08-31T23:38:52.931Z,2.50
2018-08-31T23:41:22.092Z,2.60
2018-08-31T23:43:50.426Z,2.73
2018-08-31T23:46:18.780Z,2.23
2018-08-31T23:48:47.886Z,2.33
2018-08-31T23:51:17.093Z,2.20
2018-08-31T23:53:46.208Z,2.40
2018-08-31T23:56:14.557Z,2.13
2018-08-31T23:58:43.704Z,2.47
